Ripon, Wisconsin
Current Conditions -  °F | °C
As of 2:53 AM on Wednesday 26 Nov 2014 (Local Time) from KOSH Reporting Station
Haze Haze  
Wind Chill: 11°   Ceiling: Unl
Heat Index: 11°   Visibility: 6mi
Dew Point:   Wind: 3mph
Humidity: 84%   Direction: 200°SSW
Pressure: 30.16"   Gusts: NA
Location:  43.85°N, 88.84°W
Report Text: KOSH 260853Z AUTO 20003KT 6SM BR CLR M12/M14 A3016 RMK AO2 SLP237 I1000 I3000 T11171139 56001
Loading
Personal Weather Stations






























Interactive Weather Map New forecast layout! Learn more

10-Day Weather Forecast

Advertisements
Track Severe Weather on mobile